Time;durP1;ratioP1;P1;durP2;ratioP2;P2;SDS_P1;SDS_P2;PMS_P1;PMS_P2;Temp;Humidity;BMP_temperature;BMP_pressure;BME280_temperature;BME280_humidity;BME280_pressure;Samples;Min_cycle;Max_cycle;Signal;HPM_P1;HPM_P2
2021/09/11 00:02:16;;;;;;;16.07;15.17;;;18.10;99.90;;;;;;5043440;28;20452;-69
2021/09/11 00:04:46;;;;;;;18.10;16.63;;;18.00;99.90;;;;;;5062177;28;21011;-70
2021/09/11 00:07:13;;;;;;;17.57;16.37;;;18.00;99.90;;;;;;5053897;28;20898;-69
2021/09/11 00:09:41;;;;;;;17.00;15.97;;;18.00;99.90;;;;;;5038531;28;20542;-70
2021/09/11 00:12:10;;;;;;;17.23;16.13;;;18.00;99.90;;;;;;5037935;28;20459;-71
2021/09/11 00:14:38;;;;;;;17.40;16.20;;;18.10;99.90;;;;;;5040757;28;20487;-70
2021/09/11 00:17:05;;;;;;;15.30;14.30;;;18.10;99.90;;;;;;5038840;28;20812;-69
2021/09/11 00:19:33;;;;;;;16.90;15.70;;;18.10;99.90;;;;;;5040686;28;20451;-69
2021/09/11 00:22:00;;;;;;;17.13;15.90;;;18.10;99.90;;;;;;5046083;28;20451;-71
2021/09/11 00:24:27;;;;;;;16.13;15.13;;;18.10;99.90;;;;;;5041446;28;20469;-69
2021/09/11 00:26:56;;;;;;;15.93;14.73;;;18.10;99.90;;;;;;5038348;28;20478;-69
2021/09/11 00:29:23;;;;;;;16.93;15.53;;;18.10;99.90;;;;;;5043365;28;20465;-71
2021/09/11 00:31:50;;;;;;;17.03;15.87;;;18.10;99.90;;;;;;5040153;28;20462;-69
2021/09/11 00:34:18;;;;;;;17.70;16.20;;;18.20;99.90;;;;;;5039355;28;20495;-69
2021/09/11 00:36:46;;;;;;;16.37;15.13;;;18.20;99.90;;;;;;5042367;28;20455;-68
2021/09/11 00:39:14;;;;;;;18.33;16.70;;;18.20;99.90;;;;;;5044044;28;20526;-68
2021/09/11 00:41:42;;;;;;;17.83;16.20;;;18.20;99.90;;;;;;5045777;28;20498;-68
2021/09/11 00:44:12;;;;;;;20.87;16.60;;;18.30;99.90;;;;;;5048283;28;20459;-68
2021/09/11 00:46:39;;;;;;;18.53;17.03;;;18.40;99.90;;;;;;5040338;28;20466;-68
2021/09/11 00:49:06;;;;;;;18.70;17.23;;;18.40;99.90;;;;;;5044529;28;20463;-71
2021/09/11 00:51:34;;;;;;;19.63;17.73;;;18.50;99.90;;;;;;5044776;28;20459;-70
2021/09/11 00:54:02;;;;;;;19.70;17.97;;;18.50;99.90;;;;;;5049702;28;20954;-69
2021/09/11 00:56:30;;;;;;;20.33;18.43;;;18.60;99.90;;;;;;5050698;28;20479;-68
2021/09/11 00:58:58;;;;;;;19.47;17.67;;;18.70;99.90;;;;;;5038877;28;20453;-71
2021/09/11 01:01:27;;;;;;;22.47;20.37;;;18.80;99.90;;;;;;5039792;28;20468;-70
2021/09/11 01:03:54;;;;;;;24.83;22.37;;;18.80;99.90;;;;;;5038072;28;20455;-69
2021/09/11 01:06:22;;;;;;;25.80;23.20;;;18.90;99.90;;;;;;5041773;28;20487;-71
2021/09/11 01:08:49;;;;;;;27.10;24.30;;;18.90;99.90;;;;;;5040418;28;20498;-71
2021/09/11 01:11:17;;;;;;;26.87;24.17;;;18.90;99.90;;;;;;5049571;28;20451;-71
2021/09/11 01:13:45;;;;;;;27.17;22.87;;;18.90;99.90;;;;;;5038751;28;20467;-71
2021/09/11 01:16:13;;;;;;;27.50;24.97;;;18.90;99.90;;;;;;5040503;28;20541;-71
2021/09/11 01:18:42;;;;;;;28.80;26.10;;;18.90;99.90;;;;;;5034388;28;20528;-69
2021/09/11 01:21:09;;;;;;;29.63;26.80;;;18.80;99.90;;;;;;5041763;28;20468;-69
2021/09/11 01:23:41;;;;;;;27.43;24.50;;;18.80;99.90;;;;;;5042240;28;20452;-68
2021/09/11 01:26:08;;;;;;;26.73;24.33;;;18.80;99.90;;;;;;5044072;28;20463;-68
2021/09/11 01:28:37;;;;;;;29.57;23.73;;;18.80;99.90;;;;;;5041946;28;20452;-70
2021/09/11 01:31:04;;;;;;;29.07;25.70;;;18.80;99.90;;;;;;5034680;28;20460;-71
2021/09/11 01:33:32;;;;;;;27.63;24.93;;;18.70;99.90;;;;;;5040831;28;21011;-71
2021/09/11 01:36:00;;;;;;;28.87;26.10;;;18.70;99.90;;;;;;5037653;28;20493;-73
2021/09/11 01:38:27;;;;;;;35.50;27.40;;;18.60;99.90;;;;;;5046619;28;21001;-70
2021/09/11 01:40:55;;;;;;;32.77;26.47;;;18.50;99.90;;;;;;5043941;28;20462;-72
2021/09/11 01:43:29;;;;;;;29.70;26.23;;;18.50;99.90;;;;;;5048022;28;20447;-70
2021/09/11 01:45:57;;;;;;;31.30;27.90;;;18.50;99.90;;;;;;5039196;28;20549;-70
2021/09/11 01:48:24;;;;;;;30.30;27.07;;;18.50;99.90;;;;;;5054807;28;20455;-73
2021/09/11 01:50:51;;;;;;;30.70;27.50;;;18.50;99.90;;;;;;5044873;28;20550;-70
2021/09/11 01:53:20;;;;;;;32.30;28.30;;;18.40;99.90;;;;;;5040708;28;20462;-71
2021/09/11 01:55:47;;;;;;;32.40;29.03;;;18.30;99.90;;;;;;5047714;28;20483;-70
2021/09/11 01:58:15;;;;;;;37.77;28.53;;;18.40;99.90;;;;;;5047075;28;20826;-69
2021/09/11 02:00:44;;;;;;;38.30;29.33;;;18.40;99.90;;;;;;5041729;28;20942;-71
2021/09/11 02:03:11;;;;;;;33.07;29.43;;;18.40;99.90;;;;;;5036982;28;20463;-70
2021/09/11 02:05:38;;;;;;;38.23;29.27;;;18.20;99.90;;;;;;5039603;28;20990;-72
2021/09/11 02:08:07;;;;;;;35.67;30.47;;;18.10;99.90;;;;;;5045004;28;20464;-72
2021/09/11 02:10:34;;;;;;;33.63;30.10;;;18.00;99.90;;;;;;5047090;28;20553;-70
2021/09/11 02:13:01;;;;;;;34.40;29.50;;;18.00;99.90;;;;;;5045298;28;20455;-71
2021/09/11 02:15:30;;;;;;;41.77;30.93;;;18.00;99.90;;;;;;5041542;28;20479;-70
2021/09/11 02:17:57;;;;;;;38.70;30.93;;;18.00;99.90;;;;;;5040582;28;20552;-70
2021/09/11 02:20:24;;;;;;;40.03;31.00;;;18.00;99.90;;;;;;5051483;28;20463;-70
2021/09/11 02:22:50;;;;;;;38.27;29.30;;;18.00;99.90;;;;;;5043700;28;20463;-71
2021/09/11 02:25:17;;;;;;;35.80;28.97;;;18.00;99.90;;;;;;5042674;28;20458;-70
2021/09/11 02:27:44;;;;;;;32.37;28.80;;;18.00;99.90;;;;;;5042539;28;20453;-71
2021/09/11 02:30:11;;;;;;;37.27;29.50;;;17.80;99.90;;;;;;5050139;28;20593;-70
2021/09/11 02:32:39;;;;;;;34.00;29.37;;;17.80;99.90;;;;;;5054277;28;20459;-71
2021/09/11 02:35:09;;;;;;;37.27;29.10;;;17.80;99.90;;;;;;5049057;28;20491;-70
2021/09/11 02:37:35;;;;;;;31.23;27.90;;;17.80;99.90;;;;;;5046073;28;20451;-70
2021/09/11 02:40:03;;;;;;;32.87;29.43;;;17.70;99.90;;;;;;5041444;28;20455;-70
2021/09/11 02:42:30;;;;;;;32.23;27.00;;;17.70;99.90;;;;;;5044692;28;20463;-70
2021/09/11 02:44:57;;;;;;;34.87;28.43;;;17.70;99.90;;;;;;5043466;28;20486;-70
2021/09/11 02:47:25;;;;;;;28.50;25.70;;;17.60;99.90;;;;;;5055549;28;20465;-72
2021/09/11 02:49:53;;;;;;;29.10;26.17;;;17.60;99.90;;;;;;5042830;28;20474;-70
2021/09/11 02:52:20;;;;;;;29.77;25.77;;;17.50;99.90;;;;;;5041375;28;20467;-69
2021/09/11 02:54:46;;;;;;;26.93;24.30;;;17.40;99.90;;;;;;5045002;28;20471;-69
2021/09/11 02:57:14;;;;;;;26.73;23.77;;;17.40;99.90;;;;;;5050636;28;20466;-70
2021/09/11 02:59:42;;;;;;;26.40;24.00;;;17.30;99.90;;;;;;5044038;28;20975;-69
2021/09/11 03:02:09;;;;;;;32.10;22.60;;;17.30;99.90;;;;;;5040673;28;20851;-69
2021/09/11 03:04:36;;;;;;;25.03;22.83;;;17.30;99.90;;;;;;5043558;28;20460;-71
2021/09/11 03:07:05;;;;;;;25.13;22.63;;;17.30;99.90;;;;;;5041266;28;20480;-70
2021/09/11 03:09:32;;;;;;;24.73;22.40;;;17.10;99.90;;;;;;5040573;28;20463;-68
2021/09/11 03:12:01;;;;;;;24.80;22.67;;;17.10;99.90;;;;;;5041271;28;20459;-69
2021/09/11 03:14:27;;;;;;;26.13;23.40;;;17.10;99.90;;;;;;5034676;28;20471;-68
2021/09/11 03:16:55;;;;;;;23.13;21.00;;;17.00;99.90;;;;;;5043102;28;20456;-68
2021/09/11 03:19:22;;;;;;;25.10;22.40;;;17.10;99.90;;;;;;5039981;28;20448;-68
2021/09/11 03:21:49;;;;;;;24.30;22.10;;;17.00;99.90;;;;;;5038965;28;21004;-68
2021/09/11 03:24:18;;;;;;;25.27;22.87;;;17.00;99.90;;;;;;5041921;28;20462;-70
2021/09/11 03:26:45;;;;;;;27.30;23.90;;;17.00;99.90;;;;;;5048336;28;20463;-70
2021/09/11 03:29:12;;;;;;;26.47;23.37;;;17.00;99.90;;;;;;5054483;28;21462;-71
2021/09/11 03:31:38;;;;;;;27.27;24.43;;;17.00;99.90;;;;;;5056802;28;20521;-71
2021/09/11 03:34:05;;;;;;;26.00;23.43;;;17.00;99.90;;;;;;5040957;28;20486;-72
2021/09/11 03:36:32;;;;;;;27.07;24.47;;;17.00;99.90;;;;;;5041387;28;20488;-71
2021/09/11 03:38:59;;;;;;;26.43;23.70;;;17.00;99.90;;;;;;5042579;28;20459;-70
2021/09/11 03:41:27;;;;;;;24.97;22.87;;;17.00;99.90;;;;;;5042079;28;20931;-72
2021/09/11 03:43:55;;;;;;;23.87;21.50;;;17.00;99.90;;;;;;5033732;28;20487;-71
2021/09/11 03:46:22;;;;;;;24.03;21.83;;;17.00;99.90;;;;;;5043650;28;20459;-70
2021/09/11 03:48:50;;;;;;;23.53;21.23;;;17.00;99.90;;;;;;5043765;28;20714;-70
2021/09/11 03:51:17;;;;;;;22.70;20.90;;;17.00;99.90;;;;;;5040710;28;20457;-69
2021/09/11 03:53:45;;;;;;;21.53;19.47;;;17.00;99.90;;;;;;5049976;28;20459;-69
2021/09/11 03:56:12;;;;;;;21.70;19.70;;;17.00;99.90;;;;;;5036978;28;20488;-70
2021/09/11 03:58:40;;;;;;;22.60;20.20;;;17.10;99.90;;;;;;5040966;28;20463;-72
2021/09/11 04:01:07;;;;;;;22.33;20.20;;;17.00;99.90;;;;;;5040996;28;20463;-70
2021/09/11 04:03:36;;;;;;;20.90;18.87;;;17.10;99.90;;;;;;5043945;28;20961;-70
2021/09/11 04:06:03;;;;;;;21.60;19.87;;;17.10;99.90;;;;;;5042036;28;20478;-70
2021/09/11 04:08:31;;;;;;;20.07;18.43;;;17.20;99.90;;;;;;5033536;28;20467;-70
2021/09/11 04:10:58;;;;;;;20.00;18.10;;;17.20;99.90;;;;;;5045317;28;20878;-70
2021/09/11 04:13:25;;;;;;;19.97;18.23;;;17.20;99.90;;;;;;5050784;28;20447;-70
2021/09/11 04:15:54;;;;;;;20.27;18.57;;;17.30;99.90;;;;;;5039496;28;20476;-69
2021/09/11 04:18:22;;;;;;;18.60;16.80;;;17.30;99.90;;;;;;5038975;28;20479;-71
2021/09/11 04:20:49;;;;;;;23.40;18.80;;;17.30;99.90;;;;;;5040365;28;20468;-70
2021/09/11 04:23:16;;;;;;;20.97;19.03;;;17.30;99.90;;;;;;5037809;28;20455;-70
2021/09/11 04:25:43;;;;;;;20.30;18.50;;;17.30;99.90;;;;;;5037877;28;20452;-71
2021/09/11 04:28:10;;;;;;;19.63;17.97;;;17.30;99.90;;;;;;5043342;28;21012;-70
2021/09/11 04:30:37;;;;;;;18.63;16.93;;;17.30;99.90;;;;;;5047629;28;20456;-70
2021/09/11 04:33:06;;;;;;;19.27;17.47;;;17.30;99.90;;;;;;5049965;28;20458;-71
2021/09/11 04:35:33;;;;;;;20.33;18.60;;;17.30;99.90;;;;;;5046402;28;20496;-70
2021/09/11 04:38:00;;;;;;;19.90;18.00;;;17.30;99.90;;;;;;5048563;28;20482;-70
2021/09/11 04:40:28;;;;;;;19.73;18.10;;;17.40;99.90;;;;;;5042593;28;20463;-69
2021/09/11 04:42:57;;;;;;;20.97;18.90;;;17.40;99.90;;;;;;5040238;28;20806;-70
2021/09/11 04:45:24;;;;;;;21.07;18.97;;;17.40;99.90;;;;;;5037958;28;20460;-71
2021/09/11 04:47:51;;;;;;;23.30;20.43;;;17.40;99.90;;;;;;5042451;28;20467;-70
2021/09/11 04:50:20;;;;;;;22.97;20.53;;;17.40;99.90;;;;;;5046291;28;20835;-70
2021/09/11 04:52:47;;;;;;;21.80;19.63;;;17.40;99.90;;;;;;5048711;28;20557;-70
2021/09/11 04:55:14;;;;;;;21.33;19.53;;;17.30;99.90;;;;;;5044410;28;20461;-70
2021/09/11 04:57:41;;;;;;;20.27;18.37;;;17.30;99.90;;;;;;5044835;28;20539;-69
2021/09/11 05:00:09;;;;;;;20.03;17.97;;;17.30;99.90;;;;;;5044459;28;20461;-70
2021/09/11 05:02:36;;;;;;;20.73;18.60;;;17.10;99.90;;;;;;5034729;28;20453;-70
2021/09/11 05:05:04;;;;;;;20.87;18.67;;;17.00;99.90;;;;;;5041019;28;20462;-70
2021/09/11 05:07:32;;;;;;;21.33;19.57;;;16.90;99.90;;;;;;5044581;28;20452;-70
2021/09/11 05:10:01;;;;;;;21.03;19.33;;;16.90;99.90;;;;;;5043131;28;20788;-70
2021/09/11 05:12:28;;;;;;;20.57;19.10;;;16.90;99.90;;;;;;5042663;28;20468;-70
2021/09/11 05:14:55;;;;;;;19.43;17.63;;;16.90;99.90;;;;;;5038393;28;20463;-71
2021/09/11 05:17:23;;;;;;;18.73;17.10;;;16.80;99.90;;;;;;5047877;28;20490;-70
2021/09/11 05:19:50;;;;;;;17.43;16.07;;;16.90;99.90;;;;;;5048642;28;20845;-70
2021/09/11 05:22:17;;;;;;;18.07;16.53;;;16.90;99.90;;;;;;5049466;28;20464;-71
2021/09/11 05:24:45;;;;;;;19.33;17.53;;;17.00;99.90;;;;;;5046769;28;20460;-71
2021/09/11 05:27:13;;;;;;;17.07;15.80;;;17.00;99.90;;;;;;5047437;28;20459;-70
2021/09/11 05:29:40;;;;;;;17.30;15.90;;;17.10;99.90;;;;;;5042112;28;20460;-70
2021/09/11 05:32:08;;;;;;;16.23;14.93;;;17.20;99.90;;;;;;5043198;28;20919;-70
2021/09/11 05:34:36;;;;;;;15.07;13.90;;;17.20;99.90;;;;;;5047327;28;20977;-70
2021/09/11 05:37:03;;;;;;;16.57;15.37;;;17.20;99.90;;;;;;5052759;28;20816;-71
2021/09/11 05:39:30;;;;;;;16.53;15.40;;;17.20;99.90;;;;;;5042835;28;20795;-70
2021/09/11 05:41:59;;;;;;;15.60;14.50;;;17.20;99.90;;;;;;5040437;28;20472;-69
2021/09/11 05:44:26;;;;;;;17.30;15.83;;;17.30;99.90;;;;;;5049390;28;20886;-70
2021/09/11 05:46:53;;;;;;;16.90;15.20;;;17.30;99.90;;;;;;5049099;28;20456;-70
2021/09/11 05:49:20;;;;;;;17.10;15.70;;;17.30;99.90;;;;;;5044842;28;20546;-70
2021/09/11 05:51:47;;;;;;;15.80;14.60;;;17.40;99.90;;;;;;5047222;28;20476;-71
2021/09/11 05:54:15;;;;;;;16.67;15.40;;;17.40;99.90;;;;;;5046906;28;20462;-70
2021/09/11 05:56:43;;;;;;;16.47;15.17;;;17.40;99.90;;;;;;5041006;28;20499;-71
2021/09/11 05:59:11;;;;;;;16.43;15.27;;;17.50;99.90;;;;;;5038219;28;20472;-69
2021/09/11 06:01:39;;;;;;;16.97;15.43;;;17.50;99.90;;;;;;5051055;28;20460;-70
2021/09/11 06:04:07;;;;;;;16.90;15.80;;;17.40;99.90;;;;;;5049332;28;20453;-71
2021/09/11 06:06:33;;;;;;;17.00;16.00;;;17.30;99.90;;;;;;5044663;28;20836;-72
2021/09/11 06:09:00;;;;;;;17.33;16.00;;;17.30;99.90;;;;;;5038086;28;20463;-70
2021/09/11 06:11:27;;;;;;;18.13;15.70;;;17.30;99.90;;;;;;5037900;28;20464;-72
2021/09/11 06:13:55;;;;;;;17.40;15.53;;;17.20;99.90;;;;;;5044100;28;20467;-71
2021/09/11 06:16:24;;;;;;;16.30;15.20;;;17.30;99.90;;;;;;5043800;28;20483;-70
2021/09/11 06:18:52;;;;;;;19.90;15.10;;;17.40;99.90;;;;;;5044146;28;20889;-72
2021/09/11 06:21:18;;;;;;;15.40;14.37;;;17.60;99.90;;;;;;5043714;28;20782;-70
2021/09/11 06:23:46;;;;;;;15.70;14.60;;;17.60;99.90;;;;;;5039518;28;20460;-72
2021/09/11 06:26:13;;;;;;;15.60;14.43;;;17.70;99.90;;;;;;5042549;28;20540;-69
2021/09/11 06:28:40;;;;;;;15.73;14.73;;;18.00;99.90;;;;;;5044562;28;20463;-70
2021/09/11 06:31:07;;;;;;;15.70;14.80;;;18.10;99.90;;;;;;5038519;28;20470;-71
2021/09/11 06:33:35;;;;;;;15.93;14.87;;;18.20;99.90;;;;;;5047339;28;20877;-69
2021/09/11 06:36:03;;;;;;;16.63;15.63;;;18.30;99.90;;;;;;5042728;28;20811;-70
2021/09/11 06:38:30;;;;;;;21.43;16.73;;;18.40;99.90;;;;;;5045174;28;20958;-69
2021/09/11 06:40:57;;;;;;;16.90;15.60;;;18.60;99.90;;;;;;5040620;28;20461;-70
2021/09/11 06:43:23;;;;;;;16.00;14.83;;;18.60;99.90;;;;;;5048936;28;20950;-69
2021/09/11 06:45:52;;;;;;;17.33;15.60;;;18.60;99.90;;;;;;5050393;28;20471;-70
2021/09/11 06:48:19;;;;;;;16.33;15.03;;;18.60;99.90;;;;;;5042611;28;20487;-69
2021/09/11 06:50:48;;;;;;;17.00;15.80;;;18.70;99.90;;;;;;5046917;28;20930;-69
2021/09/11 06:53:14;;;;;;;17.23;16.03;;;18.40;99.90;;;;;;5050358;28;20452;-69
2021/09/11 06:55:42;;;;;;;16.77;15.20;;;18.60;99.90;;;;;;5049906;28;20471;-71
2021/09/11 06:58:09;;;;;;;17.37;16.03;;;18.60;99.90;;;;;;5046427;28;20456;-69
2021/09/11 07:00:36;;;;;;;17.03;15.90;;;18.80;99.90;;;;;;5044533;28;20462;-72
2021/09/11 07:03:04;;;;;;;17.00;16.10;;;18.90;99.90;;;;;;5039937;28;20530;-69
2021/09/11 07:05:30;;;;;;;16.97;15.97;;;18.90;99.90;;;;;;5039435;28;20499;-69
2021/09/11 07:07:59;;;;;;;17.07;15.97;;;19.10;99.90;;;;;;5051362;28;20460;-69
2021/09/11 07:10:27;;;;;;;16.40;15.43;;;19.00;99.90;;;;;;5048032;28;20521;-70
2021/09/11 07:12:54;;;;;;;16.10;14.90;;;19.20;99.90;;;;;;5041810;28;20786;-69
2021/09/11 07:15:20;;;;;;;15.93;14.93;;;19.30;99.90;;;;;;5039578;28;20459;-71
2021/09/11 07:17:47;;;;;;;16.10;15.20;;;19.50;99.90;;;;;;5041034;28;20484;-70
2021/09/11 07:20:15;;;;;;;16.17;15.00;;;19.30;99.90;;;;;;5043262;28;20444;-68
2021/09/11 07:22:41;;;;;;;15.97;14.97;;;19.10;99.90;;;;;;5046261;28;20954;-68
2021/09/11 07:25:11;;;;;;;15.80;15.00;;;19.10;99.90;;;;;;5038180;28;20467;-70
2021/09/11 07:27:38;;;;;;;15.73;14.80;;;19.40;99.90;;;;;;5043031;28;20460;-70
2021/09/11 07:30:06;;;;;;;15.63;14.63;;;19.50;99.90;;;;;;5042041;28;20451;-72
2021/09/11 07:32:34;;;;;;;16.33;15.23;;;19.70;99.90;;;;;;5039966;28;20452;-69
2021/09/11 07:35:01;;;;;;;15.70;14.37;;;19.90;99.90;;;;;;5045839;28;20511;-69
2021/09/11 07:37:28;;;;;;;15.97;14.97;;;20.00;99.90;;;;;;5044306;28;20490;-69
2021/09/11 07:39:56;;;;;;;16.60;15.37;;;20.10;99.90;;;;;;5045186;28;20452;-70
2021/09/11 07:42:25;;;;;;;14.77;13.93;;;20.20;99.90;;;;;;5039720;28;20460;-68
2021/09/11 07:44:52;;;;;;;16.03;14.73;;;20.00;99.90;;;;;;5038943;28;20452;-71
2021/09/11 07:47:18;;;;;;;15.77;14.70;;;19.90;99.90;;;;;;5039864;28;20495;-68
2021/09/11 07:49:46;;;;;;;15.93;14.93;;;19.90;99.90;;;;;;5044109;28;20466;-70
2021/09/11 07:52:13;;;;;;;16.23;14.47;;;20.20;99.90;;;;;;5041550;28;20479;-70
2021/09/11 07:54:40;;;;;;;15.17;14.13;;;20.40;99.90;;;;;;5040764;28;20452;-71
2021/09/11 07:57:07;;;;;;;15.33;14.13;;;20.50;99.90;;;;;;5044970;28;20568;-70
2021/09/11 07:59:35;;;;;;;14.50;13.70;;;20.40;99.90;;;;;;5037118;28;20463;-71
2021/09/11 08:02:04;;;;;;;15.57;14.47;;;20.50;99.90;;;;;;5046016;28;20460;-69
2021/09/11 08:04:32;;;;;;;14.83;14.03;;;20.40;99.90;;;;;;5048757;28;20614;-68
2021/09/11 08:06:58;;;;;;;15.97;14.80;;;20.50;99.90;;;;;;5049784;28;20483;-68
2021/09/11 08:09:25;;;;;;;14.00;13.27;;;20.30;99.90;;;;;;5044551;28;20471;-68
2021/09/11 08:11:52;;;;;;;14.00;13.27;;;20.50;99.90;;;;;;5040913;28;20460;-68
2021/09/11 08:14:19;;;;;;;16.60;14.13;;;20.50;99.90;;;;;;5039862;28;20465;-71
2021/09/11 08:16:48;;;;;;;14.53;13.63;;;20.60;99.90;;;;;;5039626;28;20488;-72
2021/09/11 08:19:15;;;;;;;13.87;13.10;;;20.90;99.90;;;;;;5035003;28;20464;-68
2021/09/11 08:21:43;;;;;;;15.00;13.77;;;21.10;99.90;;;;;;5046447;28;20464;-68
2021/09/11 08:24:09;;;;;;;14.57;13.77;;;21.10;99.90;;;;;;5036607;28;20464;-68
2021/09/11 08:26:38;;;;;;;14.20;13.20;;;21.40;99.90;;;;;;5042867;28;20495;-68
2021/09/11 08:29:05;;;;;;;15.13;14.13;;;21.50;99.90;;;;;;5044474;28;20475;-68
2021/09/11 08:31:33;;;;;;;14.03;13.30;;;21.50;99.90;;;;;;5042328;28;20457;-68
2021/09/11 08:34:01;;;;;;;14.83;14.13;;;21.50;99.90;;;;;;5036372;28;20488;-72
2021/09/11 08:36:28;;;;;;;14.00;13.20;;;21.70;99.90;;;;;;5037996;28;20456;-69
2021/09/11 08:38:55;;;;;;;14.27;13.57;;;21.90;99.90;;;;;;5040221;28;20472;-68
2021/09/11 08:41:22;;;;;;;14.57;13.67;;;21.70;99.90;;;;;;5033688;28;20465;-70
2021/09/11 08:43:50;;;;;;;16.03;14.93;;;21.60;99.90;;;;;;5039974;28;20467;-68
2021/09/11 08:46:18;;;;;;;15.03;13.87;;;21.20;99.90;;;;;;5035166;28;20545;-68
2021/09/11 08:48:44;;;;;;;15.57;14.50;;;21.10;99.90;;;;;;5036872;28;20567;-68
2021/09/11 08:51:12;;;;;;;14.90;13.80;;;21.10;99.90;;;;;;5037934;28;20452;-68
2021/09/11 08:53:40;;;;;;;15.33;14.03;;;21.10;99.90;;;;;;5047767;28;20453;-71
2021/09/11 08:56:08;;;;;;;14.97;14.07;;;21.00;99.90;;;;;;5040203;28;20819;-67
2021/09/11 08:58:35;;;;;;;14.50;13.50;;;21.00;99.90;;;;;;5038683;28;20480;-69
2021/09/11 09:01:02;;;;;;;14.87;13.97;;;21.10;99.90;;;;;;5043392;28;20464;-69
2021/09/11 09:03:33;;;;;;;14.30;13.50;;;20.90;99.90;;;;;;5043600;28;20472;-68
2021/09/11 09:06:17;;;;;;;14.20;13.50;;;20.90;99.90;;;;;;5045557;28;21009;-68
2021/09/11 09:08:46;;;;;;;14.70;13.60;;;20.70;99.90;;;;;;5045930;28;20965;-71
2021/09/11 09:11:28;;;;;;;13.90;13.10;;;20.90;99.90;;;;;;5037704;28;20457;-69
2021/09/11 09:14:00;;;;;;;14.13;13.33;;;21.10;99.90;;;;;;5041845;28;20463;-69
2021/09/11 09:16:29;;;;;;;14.67;13.73;;;21.20;99.90;;;;;;5041932;28;20467;-68
2021/09/11 09:18:57;;;;;;;14.30;13.20;;;21.40;99.90;;;;;;5038773;28;20456;-68
2021/09/11 09:21:28;;;;;;;14.10;13.30;;;21.60;99.90;;;;;;5041256;28;20471;-68
2021/09/11 09:23:58;;;;;;;14.40;13.50;;;21.70;99.90;;;;;;5054812;28;20954;-68
2021/09/11 09:26:25;;;;;;;13.90;13.00;;;22.50;99.90;;;;;;5047351;28;20548;-68
2021/09/11 09:29:04;;;;;;;13.83;12.97;;;23.30;99.90;;;;;;5045710;28;20529;-71
2021/09/11 09:31:31;;;;;;;13.93;13.03;;;23.40;99.90;;;;;;5036434;28;20621;-68
2021/09/11 09:33:58;;;;;;;14.10;13.20;;;23.80;99.90;;;;;;5047049;28;20499;-68
2021/09/11 09:36:35;;;;;;;14.20;13.40;;;24.10;99.90;;;;;;5041111;28;20899;-68
2021/09/11 09:39:04;;;;;;;14.87;13.70;;;23.40;99.90;;;;;;5050874;28;20455;-68
2021/09/11 09:41:46;;;;;;;14.00;13.20;;;23.50;99.90;;;;;;5047562;28;20583;-68
2021/09/11 09:44:15;;;;;;;15.13;13.87;;;23.70;99.90;;;;;;5047277;28;20495;-68
2021/09/11 09:46:44;;;;;;;13.60;12.77;;;23.40;99.90;;;;;;5047705;28;20456;-72
2021/09/11 09:49:12;;;;;;;14.83;13.60;;;23.80;99.90;;;;;;5035040;28;20479;-67
2021/09/11 09:51:41;;;;;;;14.27;13.30;;;24.40;99.90;;;;;;5049514;28;20465;-68
2021/09/11 09:54:08;;;;;;;14.47;13.73;;;24.50;99.90;;;;;;5043431;28;20470;-68
2021/09/11 09:56:35;;;;;;;14.30;13.50;;;24.00;99.90;;;;;;5039466;28;20559;-69
2021/09/11 09:59:02;;;;;;;14.23;13.07;;;23.40;99.90;;;;;;5045637;28;20459;-68
2021/09/11 10:01:30;;;;;;;14.90;13.70;;;23.10;99.90;;;;;;5042040;28;20447;-70
2021/09/11 10:03:57;;;;;;;14.20;13.50;;;22.60;99.90;;;;;;5046399;28;20467;-71
2021/09/11 10:06:29;;;;;;;14.40;13.30;;;22.10;99.90;;;;;;5042093;28;20480;-70
2021/09/11 10:09:00;;;;;;;14.00;13.20;;;22.60;99.90;;;;;;5043518;28;20494;-69
2021/09/11 10:11:38;;;;;;;14.13;13.27;;;23.10;99.90;;;;;;5038079;28;20711;-68
2021/09/11 10:14:10;;;;;;;13.43;12.57;;;23.20;99.90;;;;;;5048341;28;20463;-69
2021/09/11 10:16:39;;;;;;;13.27;12.60;;;23.20;99.90;;;;;;5042809;28;20966;-68
2021/09/11 10:19:18;;;;;;;13.53;12.70;;;24.00;99.90;;;;;;5043605;28;20780;-68
2021/09/11 10:21:46;;;;;;;14.50;13.37;;;24.70;99.90;;;;;;5038543;28;20558;-70
2021/09/11 10:24:36;;;;;;;13.53;12.83;;;24.30;99.90;;;;;;5037978;28;20464;-68
2021/09/11 10:27:09;;;;;;;13.60;13.00;;;24.30;99.90;;;;;;5048578;28;20448;-68
2021/09/11 10:29:45;;;;;;;14.50;13.70;;;23.90;99.90;;;;;;5044780;28;20459;-68
2021/09/11 10:32:21;;;;;;;13.70;13.00;;;23.30;99.90;;;;;;5045851;28;20470;-69
2021/09/11 10:34:53;;;;;;;15.00;13.80;;;23.20;99.90;;;;;;5041960;28;20475;-68
2021/09/11 10:37:33;;;;;;;13.90;13.03;;;22.90;99.90;;;;;;5041048;28;20496;-68
2021/09/11 10:40:23;;;;;;;14.50;13.40;;;22.70;99.90;;;;;;5041549;28;20470;-67
2021/09/11 10:43:11;;;;;;;14.10;13.07;;;22.70;99.90;;;;;;5050498;28;20540;-67
2021/09/11 10:45:40;;;;;;;13.13;12.17;;;23.00;99.90;;;;;;5036280;28;20982;-70
2021/09/11 10:48:27;;;;;;;13.57;12.83;;;23.60;99.90;;;;;;5043387;28;20483;-67
2021/09/11 10:50:56;;;;;;;14.10;13.30;;;24.20;99.90;;;;;;5044285;28;20455;-68
2021/09/11 10:53:24;;;;;;;13.67;13.07;;;24.20;99.90;;;;;;5047431;28;20814;-67
2021/09/11 10:55:51;;;;;;;14.53;13.63;;;23.70;99.90;;;;;;5039171;28;20800;-68
2021/09/11 10:58:22;;;;;;;13.57;12.87;;;23.70;99.90;;;;;;5036585;28;20481;-69
2021/09/11 11:00:57;;;;;;;14.03;13.33;;;23.80;99.90;;;;;;5042793;28;20467;-67
2021/09/11 11:03:24;;;;;;;13.43;12.73;;;23.90;99.90;;;;;;5038191;28;20950;-68
2021/09/11 11:06:02;;;;;;;14.30;13.50;;;24.10;99.90;;;;;;5036184;28;20476;-68
2021/09/11 11:08:30;;;;;;;13.50;12.70;;;24.80;99.90;;;;;;5030926;28;21653;-68
2021/09/11 11:10:57;;;;;;;13.80;13.00;;;25.70;99.90;;;;;;5038253;28;20468;-68
2021/09/11 11:13:25;;;;;;;14.33;13.47;;;26.50;99.90;;;;;;5039522;28;20460;-69
2021/09/11 11:15:56;;;;;;;14.00;13.27;;;26.90;99.90;;;;;;5036969;28;20453;-68
2021/09/11 11:18:27;;;;;;;13.27;12.53;;;27.50;99.90;;;;;;5036582;28;20540;-68
2021/09/11 11:20:55;;;;;;;14.03;13.20;;;27.00;99.90;;;;;;5039527;28;20463;-71
2021/09/11 11:23:23;;;;;;;14.13;13.43;;;26.30;99.90;;;;;;5039842;28;20552;-68
2021/09/11 11:25:52;;;;;;;14.20;13.40;;;25.60;99.90;;;;;;5040567;28;20462;-67
2021/09/11 11:28:21;;;;;;;13.80;13.20;;;24.70;99.90;;;;;;5037137;28;20480;-68
2021/09/11 11:30:51;;;;;;;13.40;12.80;;;24.50;99.90;;;;;;5035708;28;20484;-68
2021/09/11 11:33:19;;;;;;;14.13;13.43;;;24.40;99.90;;;;;;5034385;28;20510;-68
2021/09/11 11:35:46;;;;;;;15.57;13.23;;;24.60;99.90;;;;;;5039925;28;20464;-68
2021/09/11 11:38:14;;;;;;;15.47;14.13;;;24.80;99.90;;;;;;5040261;28;20879;-67
2021/09/11 11:40:42;;;;;;;15.10;14.00;;;24.80;99.90;;;;;;5039747;28;20555;-68
2021/09/11 11:43:11;;;;;;;14.47;13.67;;;24.80;99.90;;;;;;5036533;28;20468;-70
2021/09/11 11:45:46;;;;;;;15.10;14.07;;;25.00;99.90;;;;;;5042553;28;20460;-68
2021/09/11 11:48:14;;;;;;;14.00;13.10;;;24.80;99.90;;;;;;5029581;28;20489;-70
2021/09/11 11:50:43;;;;;;;14.30;13.60;;;24.80;99.90;;;;;;5039964;28;20468;-68
2021/09/11 11:53:12;;;;;;;14.40;13.60;;;24.80;99.90;;;;;;5040785;28;20989;-68
2021/09/11 11:55:45;;;;;;;14.50;13.60;;;25.10;99.90;;;;;;5048032;28;20834;-68
2021/09/11 11:58:13;;;;;;;14.73;13.83;;;24.90;99.90;;;;;;5033878;28;20487;-68
2021/09/11 12:00:44;;;;;;;14.50;13.70;;;24.60;99.90;;;;;;5038967;28;20475;-68
2021/09/11 12:03:36;;;;;;;14.40;13.70;;;24.50;99.90;;;;;;5036182;28;20875;-68
2021/09/11 12:06:04;;;;;;;14.43;13.30;;;24.40;99.90;;;;;;5030865;28;20484;-70
2021/09/11 12:08:36;;;;;;;14.03;13.23;;;24.80;99.90;;;;;;5036452;28;21220;-71
2021/09/11 12:11:05;;;;;;;14.60;13.90;;;24.90;99.90;;;;;;5036212;28;20551;-68
2021/09/11 12:13:32;;;;;;;15.27;14.40;;;24.40;99.90;;;;;;5038232;28;20474;-68
2021/09/11 12:16:01;;;;;;;14.93;14.13;;;24.20;99.90;;;;;;5034998;28;20460;-68
2021/09/11 12:18:34;;;;;;;14.57;13.77;;;23.90;99.90;;;;;;5034774;28;20480;-70
2021/09/11 12:21:08;;;;;;;13.53;12.80;;;23.90;99.90;;;;;;5033305;28;20465;-69
2021/09/11 12:23:37;;;;;;;14.53;13.60;;;23.70;99.90;;;;;;5037289;28;20467;-68
2021/09/11 12:26:07;;;;;;;14.90;14.00;;;23.60;99.90;;;;;;5037052;28;20458;-68
2021/09/11 12:28:46;;;;;;;14.33;13.43;;;23.50;99.90;;;;;;5035858;28;20480;-68
2021/09/11 12:31:29;;;;;;;14.20;13.50;;;23.80;99.90;;;;;;5037607;28;21123;-69
2021/09/11 12:33:59;;;;;;;14.17;13.40;;;23.70;99.90;;;;;;5033100;28;20490;-70
2021/09/11 12:36:32;;;;;;;13.70;13.10;;;23.90;99.90;;;;;;5031543;28;20845;-70